createdAt,value
2018-07-12T00:03:42.677Z,4.83
2018-07-12T00:08:44.964Z,7.03
2018-07-12T00:13:47.227Z,8.00
2018-07-12T00:18:49.723Z,7.20
2018-07-12T00:23:51.997Z,5.03
2018-07-12T00:28:54.237Z,10.43
2018-07-12T00:33:56.782Z,6.13
2018-07-12T00:38:59.082Z,8.57
2018-07-12T00:44:01.302Z,8.20
2018-07-12T00:49:03.521Z,8.17
2018-07-12T00:54:05.771Z,6.80
2018-07-12T00:59:08.008Z,7.83
2018-07-12T01:04:10.218Z,8.20
2018-07-12T01:09:12.455Z,8.33
2018-07-12T01:14:14.708Z,10.40
2018-07-12T01:19:16.920Z,6.17
2018-07-12T01:24:19.158Z,7.50
2018-07-12T01:29:21.383Z,8.57
2018-07-12T01:34:23.590Z,5.20
2018-07-12T01:39:26.006Z,7.63
2018-07-12T01:44:28.222Z,7.90
2018-07-12T01:49:30.459Z,9.57
2018-07-12T01:54:32.708Z,5.97
2018-07-12T01:59:34.918Z,6.77
2018-07-12T02:04:37.134Z,7.20
2018-07-12T02:09:39.435Z,6.50
2018-07-12T02:14:41.648Z,9.83
2018-07-12T02:19:43.883Z,12.33
2018-07-12T02:24:46.116Z,9.53
2018-07-12T02:29:48.337Z,11.50
2018-07-12T02:34:50.596Z,7.27
2018-07-12T02:39:52.815Z,5.77
2018-07-12T02:44:55.091Z,10.00
2018-07-12T02:49:57.314Z,10.13
2018-07-12T02:55:00.284Z,10.03
2018-07-12T03:00:02.598Z,10.03
2018-07-12T03:05:04.855Z,10.77
2018-07-12T03:10:07.071Z,7.03
2018-07-12T03:15:09.343Z,9.53
2018-07-12T03:20:11.559Z,8.23
2018-07-12T03:25:13.799Z,8.90
2018-07-12T03:30:16.024Z,9.17
2018-07-12T03:35:18.278Z,10.40
2018-07-12T03:40:20.547Z,9.40
2018-07-12T03:45:23.020Z,11.90
2018-07-12T03:50:25.237Z,9.33
2018-07-12T03:55:27.487Z,13.00
2018-07-12T04:00:29.770Z,11.17
2018-07-12T04:05:31.986Z,12.03
2018-07-12T04:10:34.224Z,11.13
2018-07-12T04:15:36.463Z,10.07
2018-07-12T04:20:38.718Z,10.30
2018-07-12T04:25:40.947Z,10.40
2018-07-12T04:30:43.174Z,9.87
2018-07-12T04:35:45.411Z,12.03
2018-07-12T04:40:47.674Z,12.97
2018-07-12T04:45:49.925Z,11.17
2018-07-12T04:50:52.147Z,11.50
2018-07-12T04:55:54.587Z,10.17
2018-07-12T05:00:56.814Z,11.77
2018-07-12T05:05:59.033Z,13.30
2018-07-12T05:11:01.260Z,15.83
2018-07-12T05:16:03.519Z,12.63
2018-07-12T05:21:05.717Z,11.90
2018-07-12T05:26:07.943Z,13.27
2018-07-12T05:31:10.154Z,12.43
2018-07-12T05:36:21.914Z,13.93
2018-07-12T05:41:25.020Z,10.10
2018-07-12T05:46:28.040Z,12.23
2018-07-12T05:51:31.278Z,9.63
2018-07-12T05:56:34.826Z,13.90
2018-07-12T06:01:49.535Z,10.67
2018-07-12T06:06:53.096Z,9.73
2018-07-12T06:11:56.410Z,11.30
2018-07-12T06:16:59.699Z,8.90
2018-07-12T06:22:02.974Z,9.67
2018-07-12T06:27:06.351Z,11.00
2018-07-12T06:32:09.676Z,9.87
2018-07-12T06:37:13.175Z,9.70
2018-07-12T06:42:16.585Z,9.90
2018-07-12T06:47:19.906Z,11.03
2018-07-12T06:52:23.197Z,9.20
2018-07-12T06:57:26.493Z,10.37
2018-07-12T07:02:37.804Z,8.57
2018-07-12T07:07:41.059Z,9.83
2018-07-12T07:12:44.463Z,8.03
2018-07-12T07:17:47.738Z,10.50
2018-07-12T07:22:51.462Z,7.50
2018-07-12T07:27:54.851Z,9.50
2018-07-12T07:32:58.108Z,9.47
2018-07-12T07:38:01.475Z,9.97
2018-07-12T07:43:05.179Z,9.83
2018-07-12T07:48:08.558Z,7.50
2018-07-12T07:53:11.856Z,10.50
2018-07-12T07:58:15.171Z,9.47
2018-07-12T08:03:18.500Z,12.03
2018-07-12T08:08:21.773Z,10.47
2018-07-12T08:13:25.037Z,12.37
2018-07-12T08:18:28.296Z,9.20
2018-07-12T08:23:31.571Z,8.93
2018-07-12T08:28:34.814Z,9.87
2018-07-12T08:33:44.722Z,12.50
2018-07-12T08:38:47.983Z,10.13
2018-07-12T08:43:51.291Z,11.27
2018-07-12T08:48:54.536Z,9.97
2018-07-12T08:53:57.775Z,9.23
2018-07-12T08:59:01.151Z,9.23
2018-07-12T09:04:04.444Z,10.00
2018-07-12T09:09:08.295Z,10.00
2018-07-12T09:14:11.611Z,12.00
2018-07-12T09:19:14.879Z,8.60
2018-07-12T09:24:18.135Z,9.57
2018-07-12T09:29:21.433Z,8.73
2018-07-12T09:34:24.736Z,8.33
2018-07-12T09:39:28.019Z,8.40
2018-07-12T09:44:31.446Z,9.37
2018-07-12T09:49:34.876Z,9.43
2018-07-12T09:54:38.227Z,9.90
2018-07-12T09:59:41.612Z,7.03
2018-07-12T10:04:44.899Z,7.60
2018-07-12T10:09:57.034Z,12.20
2018-07-12T10:15:05.644Z,9.27
2018-07-12T10:20:08.870Z,9.63
2018-07-12T10:25:12.323Z,8.57
2018-07-12T10:30:15.597Z,8.50
2018-07-12T10:35:18.951Z,7.80
2018-07-12T10:40:22.195Z,7.90
2018-07-12T10:45:25.466Z,8.93
2018-07-12T10:50:28.730Z,8.50
2018-07-12T10:55:32.096Z,7.63
2018-07-12T11:00:35.566Z,6.50
2018-07-12T11:05:38.830Z,8.33
2018-07-12T11:10:42.226Z,8.57
2018-07-12T11:15:46.456Z,9.33
2018-07-12T11:20:49.438Z,7.87
2018-07-12T11:25:52.795Z,7.93
2018-07-12T11:30:56.100Z,6.93
2018-07-12T11:35:59.420Z,7.77
2018-07-12T11:41:03.300Z,6.70
2018-07-12T11:46:07.836Z,6.17
2018-07-12T11:51:11.267Z,5.47
2018-07-12T11:56:14.648Z,6.87
2018-07-12T12:01:18.155Z,7.57
2018-07-12T12:06:21.395Z,8.07
2018-07-12T12:11:24.758Z,5.17
2018-07-12T12:16:28.046Z,7.23
2018-07-12T12:21:31.460Z,6.13
2018-07-12T12:26:34.764Z,4.73
2018-07-12T12:31:38.039Z,9.10
2018-07-12T12:36:41.275Z,6.57
2018-07-12T12:41:44.686Z,5.97
2018-07-12T12:46:47.942Z,5.63
2018-07-12T12:51:51.261Z,5.33
2018-07-12T12:56:54.511Z,6.77
2018-07-12T13:01:57.881Z,4.30
2018-07-12T13:07:01.244Z,3.70
2018-07-12T13:12:04.631Z,6.27
2018-07-12T13:17:07.998Z,4.77
2018-07-12T13:22:11.637Z,7.53
2018-07-12T13:27:14.941Z,6.93
2018-07-12T13:32:18.204Z,4.67
2018-07-12T13:37:21.664Z,7.80
2018-07-12T13:42:24.919Z,5.50
2018-07-12T13:47:28.207Z,5.73
2018-07-12T13:52:31.467Z,5.40
2018-07-12T13:57:34.815Z,4.90
2018-07-12T14:02:38.273Z,3.80
2018-07-12T14:07:41.651Z,5.40
2018-07-12T14:12:44.996Z,4.20
2018-07-12T14:17:48.258Z,2.80
2018-07-12T14:22:51.617Z,3.73
2018-07-12T14:27:54.965Z,4.53
2018-07-12T14:32:58.299Z,3.23
2018-07-12T14:38:01.551Z,3.93
2018-07-12T14:43:04.855Z,4.67
2018-07-12T14:48:08.168Z,3.57
2018-07-12T14:53:11.578Z,3.93
2018-07-12T14:58:14.847Z,4.10
2018-07-12T15:03:18.150Z,6.23
2018-07-12T15:08:21.430Z,8.37
2018-07-12T15:13:24.690Z,5.87
2018-07-12T15:18:28.099Z,5.60
2018-07-12T15:23:31.402Z,4.37
2018-07-12T15:28:34.843Z,6.03
2018-07-12T15:33:38.201Z,3.97
2018-07-12T15:38:41.478Z,4.47
2018-07-12T15:43:44.806Z,3.47
2018-07-12T15:48:48.087Z,4.17
2018-07-12T15:53:51.355Z,4.73
2018-07-12T15:58:54.619Z,3.47
2018-07-12T16:03:57.963Z,5.00
2018-07-12T16:09:01.218Z,4.27
2018-07-12T16:14:04.542Z,4.33
2018-07-12T16:19:07.850Z,2.50
2018-07-12T16:24:11.211Z,2.50
2018-07-12T16:29:14.462Z,3.50
2018-07-12T16:34:18.067Z,3.57
2018-07-12T16:39:21.032Z,2.50
2018-07-12T16:44:24.432Z,2.40
2018-07-12T16:49:27.764Z,3.03
2018-07-12T16:54:32.245Z,3.20
2018-07-12T16:59:35.495Z,3.30
2018-07-12T17:04:38.828Z,3.83
2018-07-12T17:09:42.192Z,5.03
2018-07-12T17:14:45.565Z,4.50
2018-07-12T17:19:48.813Z,5.33
2018-07-12T17:24:52.231Z,3.80
2018-07-12T17:29:55.648Z,4.37
2018-07-12T17:34:58.914Z,2.80
2018-07-12T17:40:02.263Z,4.23
2018-07-12T17:45:05.574Z,3.13
2018-07-12T17:50:08.840Z,2.83
2018-07-12T17:55:12.094Z,4.30
2018-07-12T18:00:15.437Z,2.90
2018-07-12T18:05:18.860Z,5.20
2018-07-12T18:10:22.042Z,2.60
2018-07-12T18:15:25.320Z,3.60
2018-07-12T18:20:28.687Z,2.37
2018-07-12T18:25:32.040Z,4.70
2018-07-12T18:30:35.342Z,3.40
2018-07-12T18:35:38.781Z,2.07
2018-07-12T18:40:42.204Z,3.73
2018-07-12T18:45:45.857Z,3.83
2018-07-12T18:50:49.158Z,2.20
2018-07-12T18:55:52.421Z,2.87
2018-07-12T19:00:55.773Z,2.53
2018-07-12T19:05:59.387Z,2.23
2018-07-12T19:11:02.718Z,5.10
2018-07-12T19:16:06.057Z,3.13
2018-07-12T19:21:09.371Z,3.57
2018-07-12T19:26:12.671Z,3.60
2018-07-12T19:31:16.236Z,2.00
2018-07-12T19:36:19.502Z,3.03
2018-07-12T19:41:22.769Z,3.73
2018-07-12T19:46:26.127Z,2.93
2018-07-12T19:51:29.441Z,3.50
2018-07-12T19:56:32.743Z,3.50
2018-07-12T20:01:36.105Z,2.47
2018-07-12T20:06:40.257Z,2.97
2018-07-12T20:11:43.655Z,5.87
2018-07-12T20:16:46.949Z,6.53
2018-07-12T20:21:50.250Z,7.60
2018-07-12T20:26:53.770Z,2.93
2018-07-12T20:31:57.114Z,2.00
2018-07-12T20:37:00.311Z,3.80
2018-07-12T20:42:03.725Z,2.30
2018-07-12T20:47:07.128Z,2.63
2018-07-12T20:52:10.423Z,4.50
2018-07-12T20:57:13.797Z,3.67
2018-07-12T21:02:17.198Z,2.27
2018-07-12T21:07:21.412Z,3.77
2018-07-12T21:12:24.603Z,3.70
2018-07-12T21:17:27.860Z,3.43
2018-07-12T21:22:31.116Z,2.37
2018-07-12T21:27:34.357Z,2.70
2018-07-12T21:32:37.771Z,2.60
2018-07-12T21:37:41.054Z,5.00
2018-07-12T21:42:44.322Z,2.67
2018-07-12T21:47:47.562Z,3.03
2018-07-12T21:52:50.858Z,3.77
2018-07-12T21:57:54.144Z,1.80
2018-07-12T22:02:57.553Z,2.13
2018-07-12T22:08:28.348Z,3.60
2018-07-12T22:13:32.632Z,4.10
2018-07-12T22:18:35.923Z,3.00
2018-07-12T22:23:39.182Z,6.27
2018-07-12T22:28:42.413Z,3.53
2018-07-12T22:33:45.667Z,4.10
2018-07-12T22:38:48.944Z,3.53
2018-07-12T22:43:52.215Z,2.33
2018-07-12T22:48:55.643Z,3.30
2018-07-12T22:53:58.853Z,3.77
2018-07-12T22:59:01.974Z,3.70
2018-07-12T23:04:05.227Z,4.10
2018-07-12T23:09:08.695Z,2.80
2018-07-12T23:14:12.032Z,4.80
2018-07-12T23:19:15.319Z,3.40
2018-07-12T23:24:18.707Z,4.63
2018-07-12T23:29:21.978Z,5.73
2018-07-12T23:34:25.302Z,3.33
2018-07-12T23:39:28.586Z,3.60
2018-07-12T23:44:31.842Z,7.07
2018-07-12T23:49:35.123Z,5.40
2018-07-12T23:54:38.427Z,4.17
2018-07-12T23:59:41.777Z,4.53
